sensor_id;sensor_type;location;lat;lon;timestamp;temperature;humidity
59660;DHT22;45534;52.690;6.268;2022-11-24T00:01:19;7.00;99.90
59660;DHT22;45534;52.690;6.268;2022-11-24T00:03:50;7.00;99.90
59660;DHT22;45534;52.690;6.268;2022-11-24T00:06:16;7.00;99.90
59660;DHT22;45534;52.690;6.268;2022-11-24T00:08:43;7.00;99.90
59660;DHT22;45534;52.690;6.268;2022-11-24T00:11:22;7.00;99.90
59660;DHT22;45534;52.690;6.268;2022-11-24T00:13:51;7.00;99.90
59660;DHT22;45534;52.690;6.268;2022-11-24T00:18:45;7.00;99.90
59660;DHT22;45534;52.690;6.268;2022-11-24T00:21:12;7.00;99.90
59660;DHT22;45534;52.690;6.268;2022-11-24T00:23:38;7.00;99.90
59660;DHT22;45534;52.690;6.268;2022-11-24T00:28:30;7.10;99.90
59660;DHT22;45534;52.690;6.268;2022-11-24T00:30:56;7.10;99.90
59660;DHT22;45534;52.690;6.268;2022-11-24T00:33:22;7.20;99.90
59660;DHT22;45534;52.690;6.268;2022-11-24T00:35:59;7.20;99.90
59660;DHT22;45534;52.690;6.268;2022-11-24T00:38:25;7.20;99.90
59660;DHT22;45534;52.690;6.268;2022-11-24T00:40:51;7.20;99.90
59660;DHT22;45534;52.690;6.268;2022-11-24T00:43:17;7.20;99.90
59660;DHT22;45534;52.690;6.268;2022-11-24T00:45:43;7.20;99.90
59660;DHT22;45534;52.690;6.268;2022-11-24T00:48:09;7.20;99.90
59660;DHT22;45534;52.690;6.268;2022-11-24T00:50:35;7.20;99.90
59660;DHT22;45534;52.690;6.268;2022-11-24T00:53:01;7.20;99.90
59660;DHT22;45534;52.690;6.268;2022-11-24T00:55:26;7.20;99.90
59660;DHT22;45534;52.690;6.268;2022-11-24T00:57:52;7.20;99.90
59660;DHT22;45534;52.690;6.268;2022-11-24T01:00:18;7.20;99.90
59660;DHT22;45534;52.690;6.268;2022-11-24T01:02:44;7.20;99.90
59660;DHT22;45534;52.690;6.268;2022-11-24T01:05:10;7.20;99.90
59660;DHT22;45534;52.690;6.268;2022-11-24T01:07:35;7.20;99.90
59660;DHT22;45534;52.690;6.268;2022-11-24T01:10:01;7.20;99.90
59660;DHT22;45534;52.690;6.268;2022-11-24T01:12:27;7.30;99.90
59660;DHT22;45534;52.690;6.268;2022-11-24T01:14:53;7.30;99.90
59660;DHT22;45534;52.690;6.268;2022-11-24T01:17:18;7.30;99.90
59660;DHT22;45534;52.690;6.268;2022-11-24T01:19:44;7.30;99.90
59660;DHT22;45534;52.690;6.268;2022-11-24T01:22:14;7.30;99.90
59660;DHT22;45534;52.690;6.268;2022-11-24T01:24:39;7.30;99.90
59660;DHT22;45534;52.690;6.268;2022-11-24T01:27:05;7.30;99.90
59660;DHT22;45534;52.690;6.268;2022-11-24T01:29:31;7.40;99.90
59660;DHT22;45534;52.690;6.268;2022-11-24T01:31:56;7.40;99.90
59660;DHT22;45534;52.690;6.268;2022-11-24T01:34:22;7.30;99.90
59660;DHT22;45534;52.690;6.268;2022-11-24T01:36:48;7.30;99.90
59660;DHT22;45534;52.690;6.268;2022-11-24T01:39:13;7.30;99.90
59660;DHT22;45534;52.690;6.268;2022-11-24T01:41:39;7.30;99.90
59660;DHT22;45534;52.690;6.268;2022-11-24T01:44:21;7.40;99.90
59660;DHT22;45534;52.690;6.268;2022-11-24T01:46:57;7.40;99.90
59660;DHT22;45534;52.690;6.268;2022-11-24T01:49:44;7.50;99.90
59660;DHT22;45534;52.690;6.268;2022-11-24T01:52:18;7.50;99.90
59660;DHT22;45534;52.690;6.268;2022-11-24T01:54:49;7.50;99.90
59660;DHT22;45534;52.690;6.268;2022-11-24T01:57:23;7.50;99.90
59660;DHT22;45534;52.690;6.268;2022-11-24T01:59:53;7.60;99.90
59660;DHT22;45534;52.690;6.268;2022-11-24T02:02:21;7.60;99.90
59660;DHT22;45534;52.690;6.268;2022-11-24T02:04:47;7.60;99.90
59660;DHT22;45534;52.690;6.268;2022-11-24T02:07:14;7.60;99.90
59660;DHT22;45534;52.690;6.268;2022-11-24T02:09:45;7.60;99.90
59660;DHT22;45534;52.690;6.268;2022-11-24T02:12:13;7.50;99.90
59660;DHT22;45534;52.690;6.268;2022-11-24T02:14:39;7.50;99.90
59660;DHT22;45534;52.690;6.268;2022-11-24T02:17:06;7.40;99.90
59660;DHT22;45534;52.690;6.268;2022-11-24T02:22:16;7.40;99.90
59660;DHT22;45534;52.690;6.268;2022-11-24T02:27:36;7.40;99.90
59660;DHT22;45534;52.690;6.268;2022-11-24T02:30:02;7.40;99.90
59660;DHT22;45534;52.690;6.268;2022-11-24T02:32:30;7.40;99.90
59660;DHT22;45534;52.690;6.268;2022-11-24T02:35:03;7.50;99.90
59660;DHT22;45534;52.690;6.268;2022-11-24T02:37:29;7.50;99.90
59660;DHT22;45534;52.690;6.268;2022-11-24T02:39:55;7.50;99.90
59660;DHT22;45534;52.690;6.268;2022-11-24T02:42:20;7.50;99.90
59660;DHT22;45534;52.690;6.268;2022-11-24T02:44:49;7.50;99.90
59660;DHT22;45534;52.690;6.268;2022-11-24T02:47:18;7.50;99.90
59660;DHT22;45534;52.690;6.268;2022-11-24T02:49:44;7.50;99.90
59660;DHT22;45534;52.690;6.268;2022-11-24T02:52:10;7.60;99.90
59660;DHT22;45534;52.690;6.268;2022-11-24T02:54:35;7.60;99.90
59660;DHT22;45534;52.690;6.268;2022-11-24T02:57:01;7.60;99.90
59660;DHT22;45534;52.690;6.268;2022-11-24T02:59:26;7.60;99.90
59660;DHT22;45534;52.690;6.268;2022-11-24T03:01:52;7.60;99.90
59660;DHT22;45534;52.690;6.268;2022-11-24T03:04:18;7.60;99.90
59660;DHT22;45534;52.690;6.268;2022-11-24T03:06:43;7.60;99.90
59660;DHT22;45534;52.690;6.268;2022-11-24T03:09:12;7.60;99.90
59660;DHT22;45534;52.690;6.268;2022-11-24T03:11:38;7.70;99.90
59660;DHT22;45534;52.690;6.268;2022-11-24T03:14:04;7.70;99.90
59660;DHT22;45534;52.690;6.268;2022-11-24T03:16:30;7.70;99.90
59660;DHT22;45534;52.690;6.268;2022-11-24T03:18:56;7.70;99.90
59660;DHT22;45534;52.690;6.268;2022-11-24T03:21:22;7.70;99.90
59660;DHT22;45534;52.690;6.268;2022-11-24T03:23:47;7.60;99.90
59660;DHT22;45534;52.690;6.268;2022-11-24T03:26:16;7.60;99.90
59660;DHT22;45534;52.690;6.268;2022-11-24T03:28:42;7.60;99.90
59660;DHT22;45534;52.690;6.268;2022-11-24T03:31:08;7.60;99.90
59660;DHT22;45534;52.690;6.268;2022-11-24T03:33:34;7.60;99.90
59660;DHT22;45534;52.690;6.268;2022-11-24T03:36:01;7.60;99.90
59660;DHT22;45534;52.690;6.268;2022-11-24T03:38:27;7.60;99.90
59660;DHT22;45534;52.690;6.268;2022-11-24T03:40:53;7.60;99.90
59660;DHT22;45534;52.690;6.268;2022-11-24T03:43:18;7.60;99.90
59660;DHT22;45534;52.690;6.268;2022-11-24T03:45:48;7.60;99.90
59660;DHT22;45534;52.690;6.268;2022-11-24T03:48:15;7.50;99.90
59660;DHT22;45534;52.690;6.268;2022-11-24T03:50:42;7.50;99.90
59660;DHT22;45534;52.690;6.268;2022-11-24T03:53:07;7.50;99.90
59660;DHT22;45534;52.690;6.268;2022-11-24T03:55:33;7.50;99.90
59660;DHT22;45534;52.690;6.268;2022-11-24T03:57:59;7.50;99.90
59660;DHT22;45534;52.690;6.268;2022-11-24T04:00:25;7.40;99.90
59660;DHT22;45534;52.690;6.268;2022-11-24T04:02:51;7.40;99.90
59660;DHT22;45534;52.690;6.268;2022-11-24T04:05:17;7.40;99.90
59660;DHT22;45534;52.690;6.268;2022-11-24T04:07:43;7.40;99.90
59660;DHT22;45534;52.690;6.268;2022-11-24T04:10:09;7.40;99.90
59660;DHT22;45534;52.690;6.268;2022-11-24T04:12:34;7.50;99.90
59660;DHT22;45534;52.690;6.268;2022-11-24T04:15:16;7.50;99.90
59660;DHT22;45534;52.690;6.268;2022-11-24T04:17:43;7.50;99.90
59660;DHT22;45534;52.690;6.268;2022-11-24T04:20:10;7.50;99.90
59660;DHT22;45534;52.690;6.268;2022-11-24T04:22:36;7.50;99.90
59660;DHT22;45534;52.690;6.268;2022-11-24T04:25:03;7.50;99.90
59660;DHT22;45534;52.690;6.268;2022-11-24T04:27:30;7.50;99.90
59660;DHT22;45534;52.690;6.268;2022-11-24T04:29:56;7.50;99.90
59660;DHT22;45534;52.690;6.268;2022-11-24T04:32:22;7.50;99.90
59660;DHT22;45534;52.690;6.268;2022-11-24T04:34:47;7.40;99.90
59660;DHT22;45534;52.690;6.268;2022-11-24T04:37:13;7.40;99.90
59660;DHT22;45534;52.690;6.268;2022-11-24T04:39:39;7.40;99.90
59660;DHT22;45534;52.690;6.268;2022-11-24T04:42:05;7.40;99.90
59660;DHT22;45534;52.690;6.268;2022-11-24T04:44:30;7.40;99.90
59660;DHT22;45534;52.690;6.268;2022-11-24T04:46:59;7.40;99.90
59660;DHT22;45534;52.690;6.268;2022-11-24T04:49:25;7.30;99.90
59660;DHT22;45534;52.690;6.268;2022-11-24T04:51:51;7.30;99.90
59660;DHT22;45534;52.690;6.268;2022-11-24T04:54:17;7.30;99.90
59660;DHT22;45534;52.690;6.268;2022-11-24T04:56:50;7.30;99.90
59660;DHT22;45534;52.690;6.268;2022-11-24T04:59:16;7.20;99.90
59660;DHT22;45534;52.690;6.268;2022-11-24T05:01:43;7.20;99.90
59660;DHT22;45534;52.690;6.268;2022-11-24T05:04:11;7.20;99.90
59660;DHT22;45534;52.690;6.268;2022-11-24T05:06:37;7.20;99.90
59660;DHT22;45534;52.690;6.268;2022-11-24T05:09:03;7.20;99.90
59660;DHT22;45534;52.690;6.268;2022-11-24T05:11:29;7.20;99.90
59660;DHT22;45534;52.690;6.268;2022-11-24T05:13:55;7.10;99.90
59660;DHT22;45534;52.690;6.268;2022-11-24T05:16:21;7.10;99.90
59660;DHT22;45534;52.690;6.268;2022-11-24T05:18:47;7.10;99.90
59660;DHT22;45534;52.690;6.268;2022-11-24T05:21:12;7.10;99.90
59660;DHT22;45534;52.690;6.268;2022-11-24T05:23:38;7.00;99.90
59660;DHT22;45534;52.690;6.268;2022-11-24T05:26:07;7.00;99.90
59660;DHT22;45534;52.690;6.268;2022-11-24T05:28:32;7.00;99.90
59660;DHT22;45534;52.690;6.268;2022-11-24T05:31:02;7.00;99.90
59660;DHT22;45534;52.690;6.268;2022-11-24T05:33:29;6.90;99.90
59660;DHT22;45534;52.690;6.268;2022-11-24T05:36:02;6.90;99.90
59660;DHT22;45534;52.690;6.268;2022-11-24T05:38:28;6.90;99.90
59660;DHT22;45534;52.690;6.268;2022-11-24T05:41:04;6.80;99.90
59660;DHT22;45534;52.690;6.268;2022-11-24T05:43:30;6.80;99.90
59660;DHT22;45534;52.690;6.268;2022-11-24T05:45:59;6.70;99.90
59660;DHT22;45534;52.690;6.268;2022-11-24T05:48:25;6.70;99.90
59660;DHT22;45534;52.690;6.268;2022-11-24T05:50:55;6.70;99.90
59660;DHT22;45534;52.690;6.268;2022-11-24T05:53:21;6.70;99.90
59660;DHT22;45534;52.690;6.268;2022-11-24T05:55:47;6.70;99.90
59660;DHT22;45534;52.690;6.268;2022-11-24T05:58:13;6.70;99.90
59660;DHT22;45534;52.690;6.268;2022-11-24T06:00:38;6.70;99.90
59660;DHT22;45534;52.690;6.268;2022-11-24T06:03:04;6.70;99.90
59660;DHT22;45534;52.690;6.268;2022-11-24T06:05:30;6.70;99.90
59660;DHT22;45534;52.690;6.268;2022-11-24T06:07:57;6.80;99.90
59660;DHT22;45534;52.690;6.268;2022-11-24T06:10:23;6.80;99.90
59660;DHT22;45534;52.690;6.268;2022-11-24T06:12:49;6.90;99.90
59660;DHT22;45534;52.690;6.268;2022-11-24T06:15:15;6.90;99.90
59660;DHT22;45534;52.690;6.268;2022-11-24T06:17:41;6.90;99.90
59660;DHT22;45534;52.690;6.268;2022-11-24T06:20:08;7.00;99.90
59660;DHT22;45534;52.690;6.268;2022-11-24T06:22:34;7.00;99.90
59660;DHT22;45534;52.690;6.268;2022-11-24T06:25:00;7.10;99.90
59660;DHT22;45534;52.690;6.268;2022-11-24T06:27:26;7.10;99.90
59660;DHT22;45534;52.690;6.268;2022-11-24T06:29:52;7.20;99.90
59660;DHT22;45534;52.690;6.268;2022-11-24T06:32:17;7.30;99.90
59660;DHT22;45534;52.690;6.268;2022-11-24T06:34:43;7.30;99.90
59660;DHT22;45534;52.690;6.268;2022-11-24T06:37:09;7.30;99.90
59660;DHT22;45534;52.690;6.268;2022-11-24T06:39:35;7.40;99.90
59660;DHT22;45534;52.690;6.268;2022-11-24T06:42:02;7.40;99.90
59660;DHT22;45534;52.690;6.268;2022-11-24T06:44:28;7.40;99.90
59660;DHT22;45534;52.690;6.268;2022-11-24T06:46:53;7.50;99.90
59660;DHT22;45534;52.690;6.268;2022-11-24T06:49:19;7.50;99.90
59660;DHT22;45534;52.690;6.268;2022-11-24T06:51:45;7.50;99.90
59660;DHT22;45534;52.690;6.268;2022-11-24T06:54:15;7.50;99.90
59660;DHT22;45534;52.690;6.268;2022-11-24T06:56:41;7.50;99.90
59660;DHT22;45534;52.690;6.268;2022-11-24T06:59:06;7.50;99.90
59660;DHT22;45534;52.690;6.268;2022-11-24T07:01:32;7.60;99.90
59660;DHT22;45534;52.690;6.268;2022-11-24T07:03:58;7.50;99.90
59660;DHT22;45534;52.690;6.268;2022-11-24T07:06:24;7.50;99.90
59660;DHT22;45534;52.690;6.268;2022-11-24T07:08:51;7.50;99.90
59660;DHT22;45534;52.690;6.268;2022-11-24T07:11:20;7.50;99.90
59660;DHT22;45534;52.690;6.268;2022-11-24T07:13:46;7.50;99.90
59660;DHT22;45534;52.690;6.268;2022-11-24T07:16:17;7.50;99.90
59660;DHT22;45534;52.690;6.268;2022-11-24T07:18:44;7.50;99.90
59660;DHT22;45534;52.690;6.268;2022-11-24T07:21:10;7.50;99.90
59660;DHT22;45534;52.690;6.268;2022-11-24T07:23:35;7.50;99.90
59660;DHT22;45534;52.690;6.268;2022-11-24T07:26:06;7.50;99.90
59660;DHT22;45534;52.690;6.268;2022-11-24T07:28:33;7.50;99.90
59660;DHT22;45534;52.690;6.268;2022-11-24T07:31:10;7.50;99.90
59660;DHT22;45534;52.690;6.268;2022-11-24T07:33:37;7.50;99.90
59660;DHT22;45534;52.690;6.268;2022-11-24T07:36:04;7.50;99.90
59660;DHT22;45534;52.690;6.268;2022-11-24T07:38:30;7.50;99.90
59660;DHT22;45534;52.690;6.268;2022-11-24T07:41:08;7.50;99.90
59660;DHT22;45534;52.690;6.268;2022-11-24T07:43:35;7.50;99.90
59660;DHT22;45534;52.690;6.268;2022-11-24T07:46:02;7.50;99.90
59660;DHT22;45534;52.690;6.268;2022-11-24T07:48:28;7.50;99.90
59660;DHT22;45534;52.690;6.268;2022-11-24T07:50:53;7.40;99.90
59660;DHT22;45534;52.690;6.268;2022-11-24T07:53:19;7.40;99.90
59660;DHT22;45534;52.690;6.268;2022-11-24T07:55:55;7.40;99.90
59660;DHT22;45534;52.690;6.268;2022-11-24T07:58:21;7.40;99.90
59660;DHT22;45534;52.690;6.268;2022-11-24T08:00:47;7.40;99.90
59660;DHT22;45534;52.690;6.268;2022-11-24T08:03:13;7.40;99.90
59660;DHT22;45534;52.690;6.268;2022-11-24T08:05:39;7.40;99.90
59660;DHT22;45534;52.690;6.268;2022-11-24T08:08:04;7.30;99.90
59660;DHT22;45534;52.690;6.268;2022-11-24T08:10:30;7.30;99.90
59660;DHT22;45534;52.690;6.268;2022-11-24T08:13:00;7.30;99.90
59660;DHT22;45534;52.690;6.268;2022-11-24T08:15:26;7.30;99.90
59660;DHT22;45534;52.690;6.268;2022-11-24T08:17:52;7.30;99.90
59660;DHT22;45534;52.690;6.268;2022-11-24T08:20:17;7.30;99.90
59660;DHT22;45534;52.690;6.268;2022-11-24T08:22:43;7.30;99.90
59660;DHT22;45534;52.690;6.268;2022-11-24T08:25:09;7.30;99.90
59660;DHT22;45534;52.690;6.268;2022-11-24T08:27:35;7.30;99.90
59660;DHT22;45534;52.690;6.268;2022-11-24T08:30:01;7.30;99.90
59660;DHT22;45534;52.690;6.268;2022-11-24T08:32:27;7.30;99.90
59660;DHT22;45534;52.690;6.268;2022-11-24T08:34:52;7.30;99.90
59660;DHT22;45534;52.690;6.268;2022-11-24T08:37:18;7.30;99.90
59660;DHT22;45534;52.690;6.268;2022-11-24T08:39:44;7.30;99.90
59660;DHT22;45534;52.690;6.268;2022-11-24T08:42:10;7.40;99.90
59660;DHT22;45534;52.690;6.268;2022-11-24T08:44:35;7.40;99.90
59660;DHT22;45534;52.690;6.268;2022-11-24T08:47:01;7.50;99.90
59660;DHT22;45534;52.690;6.268;2022-11-24T08:49:27;7.60;99.90
59660;DHT22;45534;52.690;6.268;2022-11-24T08:51:55;7.70;99.90
59660;DHT22;45534;52.690;6.268;2022-11-24T08:54:21;7.90;99.90
59660;DHT22;45534;52.690;6.268;2022-11-24T08:56:48;8.00;99.90
59660;DHT22;45534;52.690;6.268;2022-11-24T08:59:13;8.10;99.90
59660;DHT22;45534;52.690;6.268;2022-11-24T09:01:39;8.20;99.90
59660;DHT22;45534;52.690;6.268;2022-11-24T09:04:06;8.20;99.90
59660;DHT22;45534;52.690;6.268;2022-11-24T09:06:31;8.30;99.90
59660;DHT22;45534;52.690;6.268;2022-11-24T09:08:57;8.30;99.90
59660;DHT22;45534;52.690;6.268;2022-11-24T09:11:24;8.30;99.90
59660;DHT22;45534;52.690;6.268;2022-11-24T09:13:52;8.30;99.90
59660;DHT22;45534;52.690;6.268;2022-11-24T09:16:20;8.30;99.90
59660;DHT22;45534;52.690;6.268;2022-11-24T09:18:46;8.20;99.90
59660;DHT22;45534;52.690;6.268;2022-11-24T09:21:19;8.20;99.90
59660;DHT22;45534;52.690;6.268;2022-11-24T09:23:47;8.30;99.90
59660;DHT22;45534;52.690;6.268;2022-11-24T09:26:20;8.40;99.90
59660;DHT22;45534;52.690;6.268;2022-11-24T09:28:46;8.50;99.90
59660;DHT22;45534;52.690;6.268;2022-11-24T09:31:14;8.60;99.90
59660;DHT22;45534;52.690;6.268;2022-11-24T09:33:41;8.70;99.90
59660;DHT22;45534;52.690;6.268;2022-11-24T09:36:07;8.80;99.90
59660;DHT22;45534;52.690;6.268;2022-11-24T09:38:33;9.00;99.90
59660;DHT22;45534;52.690;6.268;2022-11-24T09:44:06;9.10;99.90
59660;DHT22;45534;52.690;6.268;2022-11-24T09:46:46;9.10;99.90
59660;DHT22;45534;52.690;6.268;2022-11-24T09:49:17;9.10;99.90
59660;DHT22;45534;52.690;6.268;2022-11-24T09:51:50;9.10;99.90
59660;DHT22;45534;52.690;6.268;2022-11-24T09:54:23;9.10;99.90
59660;DHT22;45534;52.690;6.268;2022-11-24T09:56:51;9.00;99.90
59660;DHT22;45534;52.690;6.268;2022-11-24T09:59:21;9.00;99.90
59660;DHT22;45534;52.690;6.268;2022-11-24T10:01:49;9.10;99.90
59660;DHT22;45534;52.690;6.268;2022-11-24T10:04:16;9.10;99.90
59660;DHT22;45534;52.690;6.268;2022-11-24T10:09:23;9.10;99.90
59660;DHT22;45534;52.690;6.268;2022-11-24T10:15:19;9.20;99.90
59660;DHT22;45534;52.690;6.268;2022-11-24T10:25:55;9.40;99.90
59660;DHT22;45534;52.690;6.268;2022-11-24T10:28:30;9.40;99.90
59660;DHT22;45534;52.690;6.268;2022-11-24T10:33:48;9.50;99.90
59660;DHT22;45534;52.690;6.268;2022-11-24T10:36:22;9.60;99.90
59660;DHT22;45534;52.690;6.268;2022-11-24T10:38:51;9.60;99.90
59660;DHT22;45534;52.690;6.268;2022-11-24T10:41:35;9.70;99.90
59660;DHT22;45534;52.690;6.268;2022-11-24T10:44:03;9.80;99.90
59660;DHT22;45534;52.690;6.268;2022-11-24T10:46:28;9.90;99.90
59660;DHT22;45534;52.690;6.268;2022-11-24T10:49:00;10.00;99.90
59660;DHT22;45534;52.690;6.268;2022-11-24T10:51:37;10.00;99.90
59660;DHT22;45534;52.690;6.268;2022-11-24T10:54:18;10.10;99.90
59660;DHT22;45534;52.690;6.268;2022-11-24T10:56:45;10.10;99.90
59660;DHT22;45534;52.690;6.268;2022-11-24T10:59:35;10.20;99.90
59660;DHT22;45534;52.690;6.268;2022-11-24T11:02:12;10.30;99.90
59660;DHT22;45534;52.690;6.268;2022-11-24T11:04:47;10.30;99.90
59660;DHT22;45534;52.690;6.268;2022-11-24T11:07:21;10.40;99.90
59660;DHT22;45534;52.690;6.268;2022-11-24T11:09:48;10.50;99.90
59660;DHT22;45534;52.690;6.268;2022-11-24T11:12:31;10.60;99.90
59660;DHT22;45534;52.690;6.268;2022-11-24T11:15:21;10.60;99.90
59660;DHT22;45534;52.690;6.268;2022-11-24T11:17:48;10.70;99.90
59660;DHT22;45534;52.690;6.268;2022-11-24T11:20:17;10.70;99.90
59660;DHT22;45534;52.690;6.268;2022-11-24T11:22:45;10.80;99.90
59660;DHT22;45534;52.690;6.268;2022-11-24T11:27:39;11.30;99.90
59660;DHT22;45534;52.690;6.268;2022-11-24T11:30:25;11.60;99.90
59660;DHT22;45534;52.690;6.268;2022-11-24T11:33:01;11.80;99.90
59660;DHT22;45534;52.690;6.268;2022-11-24T11:35:30;12.10;99.90
59660;DHT22;45534;52.690;6.268;2022-11-24T11:37:59;12.30;99.90
59660;DHT22;45534;52.690;6.268;2022-11-24T11:40:30;12.50;99.90
59660;DHT22;45534;52.690;6.268;2022-11-24T11:43:01;12.70;99.90
59660;DHT22;45534;52.690;6.268;2022-11-24T11:45:36;12.90;99.90
59660;DHT22;45534;52.690;6.268;2022-11-24T11:50:44;13.10;99.90
59660;DHT22;45534;52.690;6.268;2022-11-24T11:53:39;13.00;99.90
59660;DHT22;45534;52.690;6.268;2022-11-24T11:59:20;13.10;99.90
59660;DHT22;45534;52.690;6.268;2022-11-24T12:07:20;13.70;99.90
59660;DHT22;45534;52.690;6.268;2022-11-24T12:15:47;14.40;99.90
59660;DHT22;45534;52.690;6.268;2022-11-24T12:18:35;14.50;99.90
59660;DHT22;45534;52.690;6.268;2022-11-24T12:21:18;14.50;99.90
59660;DHT22;45534;52.690;6.268;2022-11-24T12:24:02;14.40;99.90
59660;DHT22;45534;52.690;6.268;2022-11-24T12:26:40;14.40;99.90
59660;DHT22;45534;52.690;6.268;2022-11-24T12:29:24;14.50;99.90
59660;DHT22;45534;52.690;6.268;2022-11-24T12:34:58;14.80;99.90
59660;DHT22;45534;52.690;6.268;2022-11-24T12:49:08;15.40;99.90
59660;DHT22;45534;52.690;6.268;2022-11-24T12:51:41;15.20;99.90
59660;DHT22;45534;52.690;6.268;2022-11-24T12:54:17;15.00;99.90
59660;DHT22;45534;52.690;6.268;2022-11-24T12:56:57;15.30;99.90
59660;DHT22;45534;52.690;6.268;2022-11-24T13:07:56;13.50;99.90
59660;DHT22;45534;52.690;6.268;2022-11-24T13:13:15;13.20;99.90
59660;DHT22;45534;52.690;6.268;2022-11-24T13:31:53;14.70;99.90
59660;DHT22;45534;52.690;6.268;2022-11-24T13:39:52;14.40;99.90
59660;DHT22;45534;52.690;6.268;2022-11-24T13:42:19;14.00;99.90
59660;DHT22;45534;52.690;6.268;2022-11-24T13:44:50;13.80;99.90
59660;DHT22;45534;52.690;6.268;2022-11-24T13:50:06;14.10;99.90
59660;DHT22;45534;52.690;6.268;2022-11-24T13:57:48;14.20;99.90
59660;DHT22;45534;52.690;6.268;2022-11-24T14:00:24;14.00;99.90
59660;DHT22;45534;52.690;6.268;2022-11-24T14:02:56;13.90;99.90
59660;DHT22;45534;52.690;6.268;2022-11-24T14:05:32;13.80;99.90
59660;DHT22;45534;52.690;6.268;2022-11-24T14:08:00;13.60;99.90
59660;DHT22;45534;52.690;6.268;2022-11-24T14:10:31;13.60;99.90
59660;DHT22;45534;52.690;6.268;2022-11-24T14:16:01;13.70;99.90
59660;DHT22;45534;52.690;6.268;2022-11-24T14:18:27;13.40;99.90
59660;DHT22;45534;52.690;6.268;2022-11-24T14:20:55;12.90;99.90
59660;DHT22;45534;52.690;6.268;2022-11-24T14:23:21;12.50;99.90
59660;DHT22;45534;52.690;6.268;2022-11-24T14:25:48;12.20;99.90
59660;DHT22;45534;52.690;6.268;2022-11-24T14:28:23;12.00;99.90
59660;DHT22;45534;52.690;6.268;2022-11-24T14:30:50;11.70;99.90
59660;DHT22;45534;52.690;6.268;2022-11-24T14:33:30;11.50;99.90
59660;DHT22;45534;52.690;6.268;2022-11-24T14:35:58;11.40;99.90
59660;DHT22;45534;52.690;6.268;2022-11-24T14:38:24;11.20;99.90
59660;DHT22;45534;52.690;6.268;2022-11-24T14:40:51;11.10;99.90
59660;DHT22;45534;52.690;6.268;2022-11-24T14:48:17;10.80;99.90
59660;DHT22;45534;52.690;6.268;2022-11-24T14:50:44;10.70;99.90
59660;DHT22;45534;52.690;6.268;2022-11-24T14:53:14;10.60;99.90
59660;DHT22;45534;52.690;6.268;2022-11-24T14:55:40;10.50;99.90
59660;DHT22;45534;52.690;6.268;2022-11-24T14:58:26;10.40;99.90
59660;DHT22;45534;52.690;6.268;2022-11-24T15:01:08;10.40;99.90
59660;DHT22;45534;52.690;6.268;2022-11-24T15:03:37;10.30;99.90
59660;DHT22;45534;52.690;6.268;2022-11-24T15:06:03;10.20;99.90
59660;DHT22;45534;52.690;6.268;2022-11-24T15:08:36;10.10;99.90
59660;DHT22;45534;52.690;6.268;2022-11-24T15:11:04;10.00;99.90
59660;DHT22;45534;52.690;6.268;2022-11-24T15:13:34;10.00;99.90
59660;DHT22;45534;52.690;6.268;2022-11-24T15:16:21;9.80;99.90
59660;DHT22;45534;52.690;6.268;2022-11-24T15:19:00;9.80;99.90
59660;DHT22;45534;52.690;6.268;2022-11-24T15:21:31;9.70;99.90
59660;DHT22;45534;52.690;6.268;2022-11-24T15:24:15;9.70;99.90
59660;DHT22;45534;52.690;6.268;2022-11-24T15:26:44;9.60;99.90
59660;DHT22;45534;52.690;6.268;2022-11-24T15:29:10;9.60;99.90
59660;DHT22;45534;52.690;6.268;2022-11-24T15:31:40;9.50;99.90
59660;DHT22;45534;52.690;6.268;2022-11-24T15:34:08;9.40;99.90
59660;DHT22;45534;52.690;6.268;2022-11-24T15:36:34;9.30;99.90
59660;DHT22;45534;52.690;6.268;2022-11-24T15:38:59;9.20;99.90
59660;DHT22;45534;52.690;6.268;2022-11-24T15:41:30;9.10;99.90
59660;DHT22;45534;52.690;6.268;2022-11-24T15:43:55;9.10;99.90
59660;DHT22;45534;52.690;6.268;2022-11-24T15:46:25;9.10;99.90
59660;DHT22;45534;52.690;6.268;2022-11-24T15:48:52;9.10;99.90
59660;DHT22;45534;52.690;6.268;2022-11-24T15:51:24;9.00;99.90
59660;DHT22;45534;52.690;6.268;2022-11-24T15:53:52;8.90;99.90
59660;DHT22;45534;52.690;6.268;2022-11-24T15:56:25;8.80;99.90
59660;DHT22;45534;52.690;6.268;2022-11-24T15:58:52;8.70;99.90
59660;DHT22;45534;52.690;6.268;2022-11-24T16:01:19;8.70;99.90
59660;DHT22;45534;52.690;6.268;2022-11-24T16:03:45;8.70;99.90
59660;DHT22;45534;52.690;6.268;2022-11-24T16:06:17;8.60;99.90
59660;DHT22;45534;52.690;6.268;2022-11-24T16:08:43;8.50;99.90
59660;DHT22;45534;52.690;6.268;2022-11-24T16:11:09;8.40;99.90
59660;DHT22;45534;52.690;6.268;2022-11-24T16:13:34;8.40;99.90
59660;DHT22;45534;52.690;6.268;2022-11-24T16:16:00;8.30;99.90
59660;DHT22;45534;52.690;6.268;2022-11-24T16:18:26;8.20;99.90
59660;DHT22;45534;52.690;6.268;2022-11-24T16:20:52;8.20;99.90
59660;DHT22;45534;52.690;6.268;2022-11-24T16:23:17;8.20;99.90
59660;DHT22;45534;52.690;6.268;2022-11-24T16:25:43;8.20;99.90
59660;DHT22;45534;52.690;6.268;2022-11-24T16:28:09;8.20;99.90
59660;DHT22;45534;52.690;6.268;2022-11-24T16:30:34;8.10;99.90
59660;DHT22;45534;52.690;6.268;2022-11-24T16:33:03;8.10;99.90
59660;DHT22;45534;52.690;6.268;2022-11-24T16:35:31;8.00;99.90
59660;DHT22;45534;52.690;6.268;2022-11-24T16:37:57;7.90;99.90
59660;DHT22;45534;52.690;6.268;2022-11-24T16:40:25;7.80;99.90
59660;DHT22;45534;52.690;6.268;2022-11-24T16:42:51;7.80;99.90
59660;DHT22;45534;52.690;6.268;2022-11-24T16:45:17;7.70;99.90
59660;DHT22;45534;52.690;6.268;2022-11-24T16:47:43;7.70;99.90
59660;DHT22;45534;52.690;6.268;2022-11-24T16:50:10;7.70;99.90
59660;DHT22;45534;52.690;6.268;2022-11-24T16:52:36;7.70;99.90
59660;DHT22;45534;52.690;6.268;2022-11-24T16:55:03;7.60;99.90
59660;DHT22;45534;52.690;6.268;2022-11-24T16:57:29;7.60;99.90
59660;DHT22;45534;52.690;6.268;2022-11-24T16:59:54;7.60;99.90
59660;DHT22;45534;52.690;6.268;2022-11-24T17:02:20;7.60;99.90
59660;DHT22;45534;52.690;6.268;2022-11-24T17:04:46;7.50;99.90
59660;DHT22;45534;52.690;6.268;2022-11-24T17:07:11;7.50;99.90
59660;DHT22;45534;52.690;6.268;2022-11-24T17:09:38;7.50;99.90
59660;DHT22;45534;52.690;6.268;2022-11-24T17:12:04;7.40;99.90
59660;DHT22;45534;52.690;6.268;2022-11-24T17:14:29;7.40;99.90
59660;DHT22;45534;52.690;6.268;2022-11-24T17:16:55;7.40;99.90
59660;DHT22;45534;52.690;6.268;2022-11-24T17:19:21;7.40;99.90
59660;DHT22;45534;52.690;6.268;2022-11-24T17:21:46;7.30;99.90
59660;DHT22;45534;52.690;6.268;2022-11-24T17:24:12;7.30;99.90
59660;DHT22;45534;52.690;6.268;2022-11-24T17:26:43;7.30;99.90
59660;DHT22;45534;52.690;6.268;2022-11-24T17:29:09;7.20;99.90
59660;DHT22;45534;52.690;6.268;2022-11-24T17:31:35;7.20;99.90
59660;DHT22;45534;52.690;6.268;2022-11-24T17:34:02;7.10;99.90
59660;DHT22;45534;52.690;6.268;2022-11-24T17:36:30;7.10;99.90
59660;DHT22;45534;52.690;6.268;2022-11-24T17:38:58;7.10;99.90
59660;DHT22;45534;52.690;6.268;2022-11-24T17:41:24;7.00;99.90
59660;DHT22;45534;52.690;6.268;2022-11-24T17:43:51;7.00;99.90